sensor_id;sensor_type;location;lat;lon;timestamp;P1;durP1;ratioP1;P2;durP2;ratioP2
60478;SDS011;46321;48.398;11.754;2023-03-01T00:00:38;27.65;;;11.50;;
60478;SDS011;46321;48.398;11.754;2023-03-01T00:03:03;28.50;;;11.20;;
60478;SDS011;46321;48.398;11.754;2023-03-01T00:05:28;24.90;;;11.50;;
60478;SDS011;46321;48.398;11.754;2023-03-01T00:07:53;27.83;;;11.77;;
60478;SDS011;46321;48.398;11.754;2023-03-01T00:10:19;26.15;;;11.32;;
60478;SDS011;46321;48.398;11.754;2023-03-01T00:12:44;24.83;;;10.93;;
60478;SDS011;46321;48.398;11.754;2023-03-01T00:15:09;24.55;;;12.02;;
60478;SDS011;46321;48.398;11.754;2023-03-01T00:17:34;24.52;;;11.25;;
60478;SDS011;46321;48.398;11.754;2023-03-01T00:20:00;24.08;;;11.18;;
60478;SDS011;46321;48.398;11.754;2023-03-01T00:22:26;25.70;;;11.63;;
60478;SDS011;46321;48.398;11.754;2023-03-01T00:24:53;25.23;;;11.18;;
60478;SDS011;46321;48.398;11.754;2023-03-01T00:27:18;28.10;;;11.60;;
60478;SDS011;46321;48.398;11.754;2023-03-01T00:29:43;24.98;;;11.23;;
60478;SDS011;46321;48.398;11.754;2023-03-01T00:32:09;25.73;;;11.38;;
60478;SDS011;46321;48.398;11.754;2023-03-01T00:34:34;26.77;;;11.48;;
60478;SDS011;46321;48.398;11.754;2023-03-01T00:36:59;22.75;;;10.57;;
60478;SDS011;46321;48.398;11.754;2023-03-01T00:39:30;26.90;;;11.55;;
60478;SDS011;46321;48.398;11.754;2023-03-01T00:41:55;23.98;;;10.63;;
60478;SDS011;46321;48.398;11.754;2023-03-01T00:44:21;24.77;;;11.30;;
60478;SDS011;46321;48.398;11.754;2023-03-01T00:46:46;25.25;;;10.77;;
60478;SDS011;46321;48.398;11.754;2023-03-01T00:49:12;23.73;;;10.80;;
60478;SDS011;46321;48.398;11.754;2023-03-01T00:51:38;25.60;;;11.23;;
60478;SDS011;46321;48.398;11.754;2023-03-01T00:54:07;23.77;;;10.95;;
60478;SDS011;46321;48.398;11.754;2023-03-01T00:56:33;26.05;;;12.25;;
60478;SDS011;46321;48.398;11.754;2023-03-01T00:58:58;25.75;;;12.38;;
60478;SDS011;46321;48.398;11.754;2023-03-01T01:01:25;26.58;;;11.73;;
60478;SDS011;46321;48.398;11.754;2023-03-01T01:04:03;26.63;;;12.00;;
60478;SDS011;46321;48.398;11.754;2023-03-01T01:06:32;22.55;;;10.23;;
60478;SDS011;46321;48.398;11.754;2023-03-01T01:09:00;25.00;;;11.40;;
60478;SDS011;46321;48.398;11.754;2023-03-01T01:11:26;26.63;;;11.52;;
60478;SDS011;46321;48.398;11.754;2023-03-01T01:13:53;23.23;;;11.05;;
60478;SDS011;46321;48.398;11.754;2023-03-01T01:16:19;24.40;;;10.48;;
60478;SDS011;46321;48.398;11.754;2023-03-01T01:18:46;25.98;;;11.70;;
60478;SDS011;46321;48.398;11.754;2023-03-01T01:21:13;24.67;;;11.88;;
60478;SDS011;46321;48.398;11.754;2023-03-01T01:23:41;24.75;;;11.48;;
60478;SDS011;46321;48.398;11.754;2023-03-01T01:26:09;28.50;;;12.13;;
60478;SDS011;46321;48.398;11.754;2023-03-01T01:28:36;26.67;;;11.82;;
60478;SDS011;46321;48.398;11.754;2023-03-01T01:31:01;25.30;;;12.00;;
60478;SDS011;46321;48.398;11.754;2023-03-01T01:33:27;28.25;;;12.35;;
60478;SDS011;46321;48.398;11.754;2023-03-01T01:35:52;22.25;;;10.93;;
60478;SDS011;46321;48.398;11.754;2023-03-01T01:38:18;24.20;;;11.00;;
60478;SDS011;46321;48.398;11.754;2023-03-01T01:40:47;24.10;;;12.00;;
60478;SDS011;46321;48.398;11.754;2023-03-01T01:43:24;30.08;;;11.32;;
60478;SDS011;46321;48.398;11.754;2023-03-01T01:45:52;24.67;;;10.75;;
60478;SDS011;46321;48.398;11.754;2023-03-01T01:48:21;28.60;;;11.98;;
60478;SDS011;46321;48.398;11.754;2023-03-01T01:50:50;25.60;;;11.45;;
60478;SDS011;46321;48.398;11.754;2023-03-01T01:53:22;27.30;;;11.82;;
60478;SDS011;46321;48.398;11.754;2023-03-01T01:55:50;24.02;;;11.10;;
60478;SDS011;46321;48.398;11.754;2023-03-01T01:58:18;27.23;;;11.43;;
60478;SDS011;46321;48.398;11.754;2023-03-01T02:00:46;30.48;;;11.45;;
60478;SDS011;46321;48.398;11.754;2023-03-01T02:03:14;27.02;;;11.35;;
60478;SDS011;46321;48.398;11.754;2023-03-01T02:08:15;24.98;;;10.68;;
60478;SDS011;46321;48.398;11.754;2023-03-01T02:10:43;24.45;;;11.20;;
60478;SDS011;46321;48.398;11.754;2023-03-01T02:16:32;20.50;;;10.32;;
60478;SDS011;46321;48.398;11.754;2023-03-01T02:18:57;26.38;;;10.82;;
60478;SDS011;46321;48.398;11.754;2023-03-01T02:21:45;29.05;;;11.90;;
60478;SDS011;46321;48.398;11.754;2023-03-01T02:24:23;23.73;;;10.70;;
60478;SDS011;46321;48.398;11.754;2023-03-01T02:27:00;24.48;;;10.60;;
60478;SDS011;46321;48.398;11.754;2023-03-01T02:29:26;22.88;;;10.60;;
60478;SDS011;46321;48.398;11.754;2023-03-01T02:31:53;25.83;;;10.45;;
60478;SDS011;46321;48.398;11.754;2023-03-01T02:34:22;24.58;;;11.02;;
60478;SDS011;46321;48.398;11.754;2023-03-01T02:37:00;26.15;;;11.60;;
60478;SDS011;46321;48.398;11.754;2023-03-01T02:39:42;22.88;;;10.65;;
60478;SDS011;46321;48.398;11.754;2023-03-01T02:42:13;24.80;;;11.13;;
60478;SDS011;46321;48.398;11.754;2023-03-01T02:44:41;26.00;;;10.80;;
60478;SDS011;46321;48.398;11.754;2023-03-01T02:47:07;23.98;;;11.05;;
60478;SDS011;46321;48.398;11.754;2023-03-01T02:49:33;24.23;;;10.60;;
60478;SDS011;46321;48.398;11.754;2023-03-01T02:52:45;26.30;;;11.95;;
60478;SDS011;46321;48.398;11.754;2023-03-01T02:55:12;26.83;;;11.18;;
60478;SDS011;46321;48.398;11.754;2023-03-01T02:57:45;25.38;;;10.77;;
60478;SDS011;46321;48.398;11.754;2023-03-01T03:00:23;24.55;;;11.80;;
60478;SDS011;46321;48.398;11.754;2023-03-01T03:02:52;23.13;;;10.88;;
60478;SDS011;46321;48.398;11.754;2023-03-01T03:05:23;24.95;;;11.05;;
60478;SDS011;46321;48.398;11.754;2023-03-01T03:07:51;24.52;;;11.27;;
60478;SDS011;46321;48.398;11.754;2023-03-01T03:10:21;28.52;;;12.00;;
60478;SDS011;46321;48.398;11.754;2023-03-01T03:12:50;28.52;;;12.02;;
60478;SDS011;46321;48.398;11.754;2023-03-01T03:15:23;27.13;;;11.93;;
60478;SDS011;46321;48.398;11.754;2023-03-01T03:17:49;25.08;;;10.80;;
60478;SDS011;46321;48.398;11.754;2023-03-01T03:22:44;23.45;;;10.35;;
60478;SDS011;46321;48.398;11.754;2023-03-01T03:25:10;24.98;;;10.93;;
60478;SDS011;46321;48.398;11.754;2023-03-01T03:27:37;27.42;;;11.45;;
60478;SDS011;46321;48.398;11.754;2023-03-01T03:30:03;27.40;;;11.07;;
60478;SDS011;46321;48.398;11.754;2023-03-01T03:32:36;25.75;;;10.85;;
60478;SDS011;46321;48.398;11.754;2023-03-01T03:35:03;25.75;;;10.95;;
60478;SDS011;46321;48.398;11.754;2023-03-01T03:37:38;26.98;;;11.25;;
60478;SDS011;46321;48.398;11.754;2023-03-01T03:40:22;26.50;;;11.25;;
60478;SDS011;46321;48.398;11.754;2023-03-01T03:42:48;23.05;;;10.30;;
60478;SDS011;46321;48.398;11.754;2023-03-01T03:45:14;27.30;;;11.45;;
60478;SDS011;46321;48.398;11.754;2023-03-01T03:47:40;27.67;;;11.75;;
60478;SDS011;46321;48.398;11.754;2023-03-01T03:50:06;25.83;;;11.27;;
60478;SDS011;46321;48.398;11.754;2023-03-01T03:52:32;28.58;;;11.52;;
60478;SDS011;46321;48.398;11.754;2023-03-01T03:54:57;23.73;;;10.25;;
60478;SDS011;46321;48.398;11.754;2023-03-01T03:57:22;25.52;;;11.27;;
60478;SDS011;46321;48.398;11.754;2023-03-01T03:59:48;24.02;;;11.02;;
60478;SDS011;46321;48.398;11.754;2023-03-01T04:02:13;23.60;;;11.35;;
60478;SDS011;46321;48.398;11.754;2023-03-01T04:04:46;25.63;;;11.05;;
60478;SDS011;46321;48.398;11.754;2023-03-01T04:07:13;27.23;;;11.82;;
60478;SDS011;46321;48.398;11.754;2023-03-01T04:09:38;23.60;;;10.77;;
60478;SDS011;46321;48.398;11.754;2023-03-01T04:12:03;25.60;;;11.43;;
60478;SDS011;46321;48.398;11.754;2023-03-01T04:14:29;23.05;;;10.48;;
60478;SDS011;46321;48.398;11.754;2023-03-01T04:16:54;23.70;;;11.07;;
60478;SDS011;46321;48.398;11.754;2023-03-01T04:19:19;26.80;;;11.60;;
60478;SDS011;46321;48.398;11.754;2023-03-01T04:21:45;26.65;;;11.13;;
60478;SDS011;46321;48.398;11.754;2023-03-01T04:24:10;29.80;;;11.85;;
60478;SDS011;46321;48.398;11.754;2023-03-01T04:26:36;26.67;;;11.55;;
60478;SDS011;46321;48.398;11.754;2023-03-01T04:29:01;27.77;;;11.05;;
60478;SDS011;46321;48.398;11.754;2023-03-01T04:31:26;27.98;;;11.55;;
60478;SDS011;46321;48.398;11.754;2023-03-01T04:33:52;28.35;;;11.95;;
60478;SDS011;46321;48.398;11.754;2023-03-01T04:36:20;29.35;;;12.10;;
60478;SDS011;46321;48.398;11.754;2023-03-01T04:38:48;28.45;;;11.38;;
60478;SDS011;46321;48.398;11.754;2023-03-01T04:41:14;24.67;;;11.18;;
60478;SDS011;46321;48.398;11.754;2023-03-01T04:43:44;26.90;;;11.60;;
60478;SDS011;46321;48.398;11.754;2023-03-01T04:46:13;27.13;;;11.82;;
60478;SDS011;46321;48.398;11.754;2023-03-01T04:48:40;28.00;;;11.68;;
60478;SDS011;46321;48.398;11.754;2023-03-01T04:51:07;28.63;;;12.23;;
60478;SDS011;46321;48.398;11.754;2023-03-01T04:53:33;30.25;;;12.32;;
60478;SDS011;46321;48.398;11.754;2023-03-01T04:56:01;29.42;;;12.35;;
60478;SDS011;46321;48.398;11.754;2023-03-01T04:58:27;32.05;;;12.23;;
60478;SDS011;46321;48.398;11.754;2023-03-01T05:00:53;29.60;;;12.50;;
60478;SDS011;46321;48.398;11.754;2023-03-01T05:03:19;27.27;;;11.55;;
60478;SDS011;46321;48.398;11.754;2023-03-01T05:05:46;31.33;;;11.30;;
60478;SDS011;46321;48.398;11.754;2023-03-01T05:08:13;32.38;;;11.70;;
60478;SDS011;46321;48.398;11.754;2023-03-01T05:10:52;27.50;;;11.90;;
60478;SDS011;46321;48.398;11.754;2023-03-01T05:13:18;29.48;;;11.57;;
60478;SDS011;46321;48.398;11.754;2023-03-01T05:15:48;27.75;;;11.25;;
60478;SDS011;46321;48.398;11.754;2023-03-01T05:20:50;32.10;;;11.07;;
60478;SDS011;46321;48.398;11.754;2023-03-01T05:23:21;27.88;;;11.55;;
60478;SDS011;46321;48.398;11.754;2023-03-01T05:25:47;28.85;;;12.23;;
60478;SDS011;46321;48.398;11.754;2023-03-01T05:28:12;31.13;;;11.40;;
60478;SDS011;46321;48.398;11.754;2023-03-01T05:30:38;25.88;;;11.98;;
60478;SDS011;46321;48.398;11.754;2023-03-01T05:33:04;27.52;;;12.00;;
60478;SDS011;46321;48.398;11.754;2023-03-01T05:35:32;28.95;;;12.73;;
60478;SDS011;46321;48.398;11.754;2023-03-01T05:37:57;30.48;;;12.45;;
60478;SDS011;46321;48.398;11.754;2023-03-01T05:40:23;27.13;;;11.77;;
60478;SDS011;46321;48.398;11.754;2023-03-01T05:42:55;29.58;;;12.55;;
60478;SDS011;46321;48.398;11.754;2023-03-01T05:45:22;28.00;;;11.73;;
60478;SDS011;46321;48.398;11.754;2023-03-01T05:47:49;31.67;;;12.35;;
60478;SDS011;46321;48.398;11.754;2023-03-01T05:50:22;33.47;;;12.35;;
60478;SDS011;46321;48.398;11.754;2023-03-01T05:52:51;29.58;;;12.80;;
60478;SDS011;46321;48.398;11.754;2023-03-01T05:55:22;28.73;;;12.65;;
60478;SDS011;46321;48.398;11.754;2023-03-01T05:57:48;31.85;;;12.02;;
60478;SDS011;46321;48.398;11.754;2023-03-01T06:00:15;30.08;;;12.40;;
60478;SDS011;46321;48.398;11.754;2023-03-01T06:02:41;30.75;;;12.45;;
60478;SDS011;46321;48.398;11.754;2023-03-01T06:05:08;35.05;;;13.35;;
60478;SDS011;46321;48.398;11.754;2023-03-01T06:07:34;30.42;;;12.32;;
60478;SDS011;46321;48.398;11.754;2023-03-01T06:10:00;30.33;;;12.93;;
60478;SDS011;46321;48.398;11.754;2023-03-01T06:12:25;29.70;;;12.35;;
60478;SDS011;46321;48.398;11.754;2023-03-01T06:14:51;36.13;;;11.82;;
60478;SDS011;46321;48.398;11.754;2023-03-01T06:17:16;27.63;;;12.35;;
60478;SDS011;46321;48.398;11.754;2023-03-01T06:19:41;28.95;;;11.98;;
60478;SDS011;46321;48.398;11.754;2023-03-01T06:22:06;34.80;;;12.68;;
60478;SDS011;46321;48.398;11.754;2023-03-01T06:24:33;30.73;;;12.60;;
60478;SDS011;46321;48.398;11.754;2023-03-01T06:26:58;34.85;;;12.48;;
60478;SDS011;46321;48.398;11.754;2023-03-01T06:29:23;30.20;;;13.18;;
60478;SDS011;46321;48.398;11.754;2023-03-01T06:31:49;31.88;;;12.15;;
60478;SDS011;46321;48.398;11.754;2023-03-01T06:34:14;31.05;;;12.77;;
60478;SDS011;46321;48.398;11.754;2023-03-01T06:36:40;30.50;;;12.15;;
60478;SDS011;46321;48.398;11.754;2023-03-01T06:39:05;28.17;;;11.23;;
60478;SDS011;46321;48.398;11.754;2023-03-01T06:41:31;28.85;;;11.85;;
60478;SDS011;46321;48.398;11.754;2023-03-01T06:43:57;29.55;;;12.80;;
60478;SDS011;46321;48.398;11.754;2023-03-01T06:46:23;31.77;;;13.25;;
60478;SDS011;46321;48.398;11.754;2023-03-01T06:48:49;29.27;;;12.80;;
60478;SDS011;46321;48.398;11.754;2023-03-01T06:51:14;31.40;;;13.40;;
60478;SDS011;46321;48.398;11.754;2023-03-01T06:53:39;37.63;;;13.00;;
60478;SDS011;46321;48.398;11.754;2023-03-01T06:56:05;32.38;;;13.98;;
60478;SDS011;46321;48.398;11.754;2023-03-01T06:58:30;32.78;;;13.32;;
60478;SDS011;46321;48.398;11.754;2023-03-01T07:00:55;26.40;;;12.32;;
60478;SDS011;46321;48.398;11.754;2023-03-01T07:03:21;27.67;;;12.20;;
60478;SDS011;46321;48.398;11.754;2023-03-01T07:05:50;29.20;;;13.18;;
60478;SDS011;46321;48.398;11.754;2023-03-01T07:08:17;30.38;;;13.00;;
60478;SDS011;46321;48.398;11.754;2023-03-01T07:10:43;30.08;;;12.18;;
60478;SDS011;46321;48.398;11.754;2023-03-01T07:13:08;27.60;;;12.40;;
60478;SDS011;46321;48.398;11.754;2023-03-01T07:15:33;31.75;;;13.35;;
60478;SDS011;46321;48.398;11.754;2023-03-01T07:17:58;27.77;;;12.75;;
60478;SDS011;46321;48.398;11.754;2023-03-01T07:20:24;27.73;;;12.13;;
60478;SDS011;46321;48.398;11.754;2023-03-01T07:22:50;27.80;;;12.70;;
60478;SDS011;46321;48.398;11.754;2023-03-01T07:25:19;28.85;;;11.98;;
60478;SDS011;46321;48.398;11.754;2023-03-01T07:27:48;29.35;;;13.07;;
60478;SDS011;46321;48.398;11.754;2023-03-01T07:30:15;29.20;;;12.90;;
60478;SDS011;46321;48.398;11.754;2023-03-01T07:32:40;31.45;;;13.30;;
60478;SDS011;46321;48.398;11.754;2023-03-01T07:35:06;30.48;;;13.35;;
60478;SDS011;46321;48.398;11.754;2023-03-01T07:37:31;26.77;;;11.63;;
60478;SDS011;46321;48.398;11.754;2023-03-01T07:39:56;28.20;;;12.57;;
60478;SDS011;46321;48.398;11.754;2023-03-01T07:42:22;30.63;;;13.48;;
60478;SDS011;46321;48.398;11.754;2023-03-01T07:44:47;29.60;;;13.13;;
60478;SDS011;46321;48.398;11.754;2023-03-01T07:47:13;31.48;;;12.52;;
60478;SDS011;46321;48.398;11.754;2023-03-01T07:49:38;27.55;;;12.63;;
60478;SDS011;46321;48.398;11.754;2023-03-01T07:52:03;27.10;;;12.63;;
60478;SDS011;46321;48.398;11.754;2023-03-01T07:54:29;25.38;;;11.82;;
60478;SDS011;46321;48.398;11.754;2023-03-01T07:56:55;29.55;;;12.82;;
60478;SDS011;46321;48.398;11.754;2023-03-01T07:59:21;30.88;;;12.82;;
60478;SDS011;46321;48.398;11.754;2023-03-01T08:01:48;27.75;;;11.98;;
60478;SDS011;46321;48.398;11.754;2023-03-01T08:04:13;30.65;;;12.90;;
60478;SDS011;46321;48.398;11.754;2023-03-01T08:06:39;25.92;;;12.60;;
60478;SDS011;46321;48.398;11.754;2023-03-01T08:09:04;29.23;;;12.45;;
60478;SDS011;46321;48.398;11.754;2023-03-01T08:11:29;30.42;;;12.80;;
60478;SDS011;46321;48.398;11.754;2023-03-01T08:13:55;30.33;;;13.90;;
60478;SDS011;46321;48.398;11.754;2023-03-01T08:16:21;31.08;;;12.90;;
60478;SDS011;46321;48.398;11.754;2023-03-01T08:18:46;29.08;;;13.60;;
60478;SDS011;46321;48.398;11.754;2023-03-01T08:21:13;30.50;;;12.77;;
60478;SDS011;46321;48.398;11.754;2023-03-01T08:23:40;31.30;;;13.00;;
60478;SDS011;46321;48.398;11.754;2023-03-01T08:26:15;24.65;;;12.02;;
60478;SDS011;46321;48.398;11.754;2023-03-01T08:28:43;24.27;;;12.25;;
60478;SDS011;46321;48.398;11.754;2023-03-01T08:31:15;27.08;;;12.38;;
60478;SDS011;46321;48.398;11.754;2023-03-01T08:33:46;34.10;;;14.07;;
60478;SDS011;46321;48.398;11.754;2023-03-01T08:36:19;28.90;;;12.88;;
60478;SDS011;46321;48.398;11.754;2023-03-01T08:38:45;28.83;;;13.50;;
60478;SDS011;46321;48.398;11.754;2023-03-01T08:41:11;29.35;;;12.80;;
60478;SDS011;46321;48.398;11.754;2023-03-01T08:43:36;29.55;;;13.30;;
60478;SDS011;46321;48.398;11.754;2023-03-01T08:46:02;29.50;;;12.95;;
60478;SDS011;46321;48.398;11.754;2023-03-01T08:48:27;29.38;;;13.45;;
60478;SDS011;46321;48.398;11.754;2023-03-01T08:50:53;25.73;;;12.18;;
60478;SDS011;46321;48.398;11.754;2023-03-01T08:53:19;27.30;;;12.98;;
60478;SDS011;46321;48.398;11.754;2023-03-01T08:55:44;27.23;;;12.55;;
60478;SDS011;46321;48.398;11.754;2023-03-01T08:58:09;26.48;;;12.70;;
60478;SDS011;46321;48.398;11.754;2023-03-01T09:00:34;30.67;;;12.65;;
60478;SDS011;46321;48.398;11.754;2023-03-01T09:03:00;26.42;;;12.90;;
60478;SDS011;46321;48.398;11.754;2023-03-01T09:05:26;28.83;;;13.25;;
60478;SDS011;46321;48.398;11.754;2023-03-01T09:07:51;26.85;;;13.73;;
60478;SDS011;46321;48.398;11.754;2023-03-01T09:10:17;26.15;;;13.93;;
60478;SDS011;46321;48.398;11.754;2023-03-01T09:12:42;25.38;;;12.90;;
60478;SDS011;46321;48.398;11.754;2023-03-01T09:15:08;27.48;;;12.82;;
60478;SDS011;46321;48.398;11.754;2023-03-01T09:17:33;27.02;;;13.77;;
60478;SDS011;46321;48.398;11.754;2023-03-01T09:19:58;25.50;;;13.32;;
60478;SDS011;46321;48.398;11.754;2023-03-01T09:22:24;27.77;;;13.95;;
60478;SDS011;46321;48.398;11.754;2023-03-01T09:24:50;27.38;;;13.60;;
60478;SDS011;46321;48.398;11.754;2023-03-01T09:27:15;27.88;;;14.02;;
60478;SDS011;46321;48.398;11.754;2023-03-01T09:29:43;26.75;;;13.80;;
60478;SDS011;46321;48.398;11.754;2023-03-01T09:32:08;26.15;;;13.63;;
60478;SDS011;46321;48.398;11.754;2023-03-01T09:34:34;24.23;;;13.23;;
60478;SDS011;46321;48.398;11.754;2023-03-01T09:37:19;24.77;;;13.15;;
60478;SDS011;46321;48.398;11.754;2023-03-01T09:39:44;25.48;;;13.85;;
60478;SDS011;46321;48.398;11.754;2023-03-01T09:42:11;26.02;;;13.43;;
60478;SDS011;46321;48.398;11.754;2023-03-01T09:47:09;24.60;;;13.68;;
60478;SDS011;46321;48.398;11.754;2023-03-01T09:49:41;24.60;;;13.48;;
60478;SDS011;46321;48.398;11.754;2023-03-01T09:54:52;25.80;;;13.50;;
60478;SDS011;46321;48.398;11.754;2023-03-01T10:05:35;24.85;;;13.13;;
60478;SDS011;46321;48.398;11.754;2023-03-01T10:11:05;22.20;;;13.23;;
60478;SDS011;46321;48.398;11.754;2023-03-01T10:19:23;23.45;;;13.32;;
60478;SDS011;46321;48.398;11.754;2023-03-01T10:21:54;22.95;;;13.45;;
60478;SDS011;46321;48.398;11.754;2023-03-01T10:24:26;23.50;;;14.02;;
60478;SDS011;46321;48.398;11.754;2023-03-01T10:26:55;25.20;;;14.30;;
60478;SDS011;46321;48.398;11.754;2023-03-01T10:29:23;25.45;;;13.90;;
60478;SDS011;46321;48.398;11.754;2023-03-01T10:31:56;22.58;;;14.07;;
60478;SDS011;46321;48.398;11.754;2023-03-01T10:34:27;26.23;;;14.45;;
60478;SDS011;46321;48.398;11.754;2023-03-01T10:36:56;24.02;;;14.32;;
60478;SDS011;46321;48.398;11.754;2023-03-01T10:39:25;21.73;;;13.82;;
60478;SDS011;46321;48.398;11.754;2023-03-01T10:44:40;23.25;;;14.65;;
60478;SDS011;46321;48.398;11.754;2023-03-01T10:47:13;22.52;;;13.98;;
60478;SDS011;46321;48.398;11.754;2023-03-01T10:49:52;23.23;;;14.15;;
60478;SDS011;46321;48.398;11.754;2023-03-01T10:52:18;21.48;;;13.93;;
60478;SDS011;46321;48.398;11.754;2023-03-01T10:54:53;24.33;;;14.80;;
60478;SDS011;46321;48.398;11.754;2023-03-01T10:57:29;20.85;;;13.88;;
60478;SDS011;46321;48.398;11.754;2023-03-01T11:00:28;22.13;;;13.82;;
60478;SDS011;46321;48.398;11.754;2023-03-01T11:02:51;20.25;;;12.43;;
60478;SDS011;46321;48.398;11.754;2023-03-01T11:05:27;22.65;;;14.32;;
60478;SDS011;46321;48.398;11.754;2023-03-01T11:07:56;21.50;;;13.77;;
60478;SDS011;46321;48.398;11.754;2023-03-01T11:10:27;21.85;;;13.98;;
60478;SDS011;46321;48.398;11.754;2023-03-01T11:12:53;21.70;;;13.93;;
60478;SDS011;46321;48.398;11.754;2023-03-01T11:15:32;21.05;;;13.63;;
60478;SDS011;46321;48.398;11.754;2023-03-01T11:17:57;21.97;;;13.67;;
60478;SDS011;46321;48.398;11.754;2023-03-01T11:20:27;22.30;;;14.52;;
60478;SDS011;46321;48.398;11.754;2023-03-01T11:23:09;23.00;;;13.70;;
60478;SDS011;46321;48.398;11.754;2023-03-01T11:25:37;22.33;;;13.55;;
60478;SDS011;46321;48.398;11.754;2023-03-01T11:28:07;21.83;;;14.43;;
60478;SDS011;46321;48.398;11.754;2023-03-01T11:30:40;23.17;;;14.15;;
60478;SDS011;46321;48.398;11.754;2023-03-01T11:36:06;23.08;;;13.25;;
60478;SDS011;46321;48.398;11.754;2023-03-01T11:38:38;21.30;;;12.68;;
60478;SDS011;46321;48.398;11.754;2023-03-01T11:43:56;23.20;;;12.63;;
60478;SDS011;46321;48.398;11.754;2023-03-01T11:49:01;22.85;;;12.70;;
60478;SDS011;46321;48.398;11.754;2023-03-01T11:57:14;25.40;;;12.30;;
60478;SDS011;46321;48.398;11.754;2023-03-01T12:00:00;21.83;;;12.13;;
60478;SDS011;46321;48.398;11.754;2023-03-01T12:03:08;26.13;;;12.18;;
60478;SDS011;46321;48.398;11.754;2023-03-01T12:06:00;23.55;;;12.02;;
60478;SDS011;46321;48.398;11.754;2023-03-01T12:08:31;24.98;;;11.98;;
60478;SDS011;46321;48.398;11.754;2023-03-01T12:11:03;25.33;;;12.40;;
60478;SDS011;46321;48.398;11.754;2023-03-01T12:16:37;22.33;;;11.60;;
60478;SDS011;46321;48.398;11.754;2023-03-01T12:19:15;25.98;;;12.48;;
60478;SDS011;46321;48.398;11.754;2023-03-01T12:28:02;23.42;;;11.13;;
60478;SDS011;46321;48.398;11.754;2023-03-01T12:30:54;24.50;;;12.23;;
60478;SDS011;46321;48.398;11.754;2023-03-01T12:36:41;26.80;;;11.27;;
60478;SDS011;46321;48.398;11.754;2023-03-01T12:50:32;23.83;;;10.32;;
60478;SDS011;46321;48.398;11.754;2023-03-01T12:53:07;24.25;;;10.98;;
60478;SDS011;46321;48.398;11.754;2023-03-01T12:55:44;21.85;;;10.73;;
60478;SDS011;46321;48.398;11.754;2023-03-01T13:11:55;21.00;;;9.88;;
60478;SDS011;46321;48.398;11.754;2023-03-01T13:16:50;25.10;;;10.23;;
60478;SDS011;46321;48.398;11.754;2023-03-01T13:19:20;21.80;;;10.05;;
60478;SDS011;46321;48.398;11.754;2023-03-01T13:21:47;19.98;;;10.55;;
60478;SDS011;46321;48.398;11.754;2023-03-01T13:24:24;25.98;;;10.90;;
60478;SDS011;46321;48.398;11.754;2023-03-01T13:34:48;21.13;;;10.60;;
60478;SDS011;46321;48.398;11.754;2023-03-01T13:37:22;22.92;;;10.00;;
60478;SDS011;46321;48.398;11.754;2023-03-01T13:39:55;22.30;;;10.85;;
60478;SDS011;46321;48.398;11.754;2023-03-01T13:44:59;21.40;;;10.27;;
60478;SDS011;46321;48.398;11.754;2023-03-01T13:47:25;21.27;;;10.48;;
60478;SDS011;46321;48.398;11.754;2023-03-01T13:49:59;24.23;;;10.70;;
60478;SDS011;46321;48.398;11.754;2023-03-01T13:58:16;22.25;;;10.85;;
60478;SDS011;46321;48.398;11.754;2023-03-01T14:00:41;23.73;;;10.55;;
60478;SDS011;46321;48.398;11.754;2023-03-01T14:03:17;24.23;;;9.77;;
60478;SDS011;46321;48.398;11.754;2023-03-01T14:08:44;22.27;;;10.23;;
60478;SDS011;46321;48.398;11.754;2023-03-01T14:11:20;22.35;;;10.23;;
60478;SDS011;46321;48.398;11.754;2023-03-01T14:19:24;24.27;;;10.05;;
60478;SDS011;46321;48.398;11.754;2023-03-01T14:24:44;23.08;;;10.63;;
60478;SDS011;46321;48.398;11.754;2023-03-01T14:27:14;22.48;;;10.35;;
60478;SDS011;46321;48.398;11.754;2023-03-01T14:29:40;19.20;;;8.75;;
60478;SDS011;46321;48.398;11.754;2023-03-01T14:34:45;18.08;;;8.43;;
60478;SDS011;46321;48.398;11.754;2023-03-01T14:37:27;18.45;;;8.38;;
60478;SDS011;46321;48.398;11.754;2023-03-01T14:39:56;20.00;;;8.63;;
60478;SDS011;46321;48.398;11.754;2023-03-01T14:42:23;19.38;;;9.25;;
60478;SDS011;46321;48.398;11.754;2023-03-01T14:47:29;16.35;;;8.65;;
60478;SDS011;46321;48.398;11.754;2023-03-01T14:50:00;19.67;;;8.77;;
60478;SDS011;46321;48.398;11.754;2023-03-01T14:52:32;20.33;;;8.95;;
60478;SDS011;46321;48.398;11.754;2023-03-01T14:55:02;22.38;;;9.05;;
60478;SDS011;46321;48.398;11.754;2023-03-01T14:57:30;17.92;;;8.82;;
60478;SDS011;46321;48.398;11.754;2023-03-01T14:59:59;18.58;;;8.52;;
60478;SDS011;46321;48.398;11.754;2023-03-01T15:02:30;22.52;;;8.80;;
60478;SDS011;46321;48.398;11.754;2023-03-01T15:04:57;23.70;;;8.73;;
60478;SDS011;46321;48.398;11.754;2023-03-01T15:07:32;18.92;;;8.70;;
60478;SDS011;46321;48.398;11.754;2023-03-01T15:10:01;20.38;;;8.57;;
60478;SDS011;46321;48.398;11.754;2023-03-01T15:14:56;19.13;;;7.70;;
60478;SDS011;46321;48.398;11.754;2023-03-01T15:19:53;19.00;;;8.52;;
60478;SDS011;46321;48.398;11.754;2023-03-01T15:22:18;20.15;;;9.00;;
60478;SDS011;46321;48.398;11.754;2023-03-01T15:24:46;19.67;;;7.93;;
60478;SDS011;46321;48.398;11.754;2023-03-01T15:27:17;16.20;;;7.53;;
60478;SDS011;46321;48.398;11.754;2023-03-01T15:29:48;22.10;;;7.78;;
60478;SDS011;46321;48.398;11.754;2023-03-01T15:32:33;14.93;;;7.25;;
60478;SDS011;46321;48.398;11.754;2023-03-01T15:35:00;16.08;;;7.47;;
60478;SDS011;46321;48.398;11.754;2023-03-01T15:37:49;14.73;;;6.85;;
60478;SDS011;46321;48.398;11.754;2023-03-01T15:40:21;15.48;;;7.10;;
60478;SDS011;46321;48.398;11.754;2023-03-01T15:42:56;13.05;;;6.35;;
60478;SDS011;46321;48.398;11.754;2023-03-01T15:45:26;12.95;;;6.60;;
60478;SDS011;46321;48.398;11.754;2023-03-01T15:47:54;13.85;;;6.40;;
60478;SDS011;46321;48.398;11.754;2023-03-01T15:50:27;16.73;;;7.28;;
60478;SDS011;46321;48.398;11.754;2023-03-01T15:52:58;15.18;;;7.28;;
60478;SDS011;46321;48.398;11.754;2023-03-01T15:55:29;14.90;;;7.25;;
60478;SDS011;46321;48.398;11.754;2023-03-01T15:57:59;17.30;;;7.45;;
60478;SDS011;46321;48.398;11.754;2023-03-01T16:00:35;14.57;;;6.20;;
60478;SDS011;46321;48.398;11.754;2023-03-01T16:03:00;16.35;;;6.68;;
60478;SDS011;46321;48.398;11.754;2023-03-01T16:05:27;16.17;;;7.47;;
60478;SDS011;46321;48.398;11.754;2023-03-01T16:07:57;13.43;;;7.00;;
60478;SDS011;46321;48.398;11.754;2023-03-01T16:10:23;11.85;;;6.43;;
60478;SDS011;46321;48.398;11.754;2023-03-01T16:12:49;15.80;;;7.55;;
60478;SDS011;46321;48.398;11.754;2023-03-01T16:15:18;14.20;;;7.00;;
60478;SDS011;46321;48.398;11.754;2023-03-01T16:17:45;20.33;;;7.97;;
60478;SDS011;46321;48.398;11.754;2023-03-01T16:20:11;16.27;;;8.07;;
60478;SDS011;46321;48.398;11.754;2023-03-01T16:22:37;13.95;;;7.30;;
60478;SDS011;46321;48.398;11.754;2023-03-01T16:25:02;17.48;;;8.02;;
60478;SDS011;46321;48.398;11.754;2023-03-01T16:27:28;16.35;;;7.82;;